Time;durP1;ratioP1;P1;durP2;ratioP2;P2;SDS_P1;SDS_P2;PMS_P1;PMS_P2;Temp;Humidity;BMP_temperature;BMP_pressure;BME280_temperature;BME280_humidity;BME280_pressure;Samples;Min_cycle;Max_cycle;Signal;HPM_P1;HPM_P2
2023/05/02 00:01:04;;;;;;;9.00;4.80;;;;;;;;;;5050342;28;20028;-67
2023/05/02 00:03:29;;;;;;;9.48;4.80;;;;;;;;;;5050171;28;20095;-67
2023/05/02 00:05:54;;;;;;;9.73;4.60;;;;;;;;;;5050219;28;20104;-67
2023/05/02 00:08:19;;;;;;;10.03;4.90;;;;;;;;;;5047232;28;20957;-67
2023/05/02 00:10:44;;;;;;;10.67;5.03;;;;;;;;;;5051345;28;20024;-67
2023/05/02 00:13:10;;;;;;;9.67;5.10;;;;;;;;;;5041890;28;20041;-67
2023/05/02 00:15:35;;;;;;;8.13;4.43;;;;;;;;;;5050258;28;20871;-67
2023/05/02 00:18:00;;;;;;;9.05;4.72;;;;;;;;;;5047217;28;20021;-67
2023/05/02 00:20:25;;;;;;;10.35;4.80;;;;;;;;;;5049625;28;20797;-67
2023/05/02 00:22:50;;;;;;;9.17;4.70;;;;;;;;;;5038869;28;20037;-67
2023/05/02 00:25:16;;;;;;;10.68;5.53;;;;;;;;;;5047397;28;20090;-69
2023/05/02 00:27:42;;;;;;;11.45;5.75;;;;;;;;;;5043226;28;20054;-67
2023/05/02 00:30:07;;;;;;;9.07;4.70;;;;;;;;;;5046515;28;20121;-68
2023/05/02 00:32:32;;;;;;;7.28;4.03;;;;;;;;;;5049634;28;20100;-68
2023/05/02 00:34:57;;;;;;;8.95;5.30;;;;;;;;;;5044190;28;20607;-67
2023/05/02 00:37:25;;;;;;;9.55;5.13;;;;;;;;;;5042462;28;20121;-67
2023/05/02 00:39:50;;;;;;;8.63;5.00;;;;;;;;;;5047577;28;20063;-67
2023/05/02 00:42:15;;;;;;;8.75;4.93;;;;;;;;;;5042721;28;20551;-67
2023/05/02 00:44:40;;;;;;;8.05;4.40;;;;;;;;;;5040896;28;20495;-67
2023/05/02 00:47:06;;;;;;;8.98;4.78;;;;;;;;;;5052756;28;20028;-67
2023/05/02 00:49:31;;;;;;;8.30;4.80;;;;;;;;;;5052603;28;20050;-67
2023/05/02 00:51:57;;;;;;;9.82;5.20;;;;;;;;;;5040009;28;20114;-67
2023/05/02 00:54:22;;;;;;;10.68;4.90;;;;;;;;;;5045509;28;20113;-66
2023/05/02 00:56:47;;;;;;;8.40;5.27;;;;;;;;;;5043555;28;20040;-66
2023/05/02 00:59:13;;;;;;;11.15;5.55;;;;;;;;;;5042356;28;20025;-67
2023/05/02 01:01:57;;;;;;;9.35;4.80;;;;;;;;;;5046229;28;20032;-67
2023/05/02 01:04:41;;;;;;;10.48;5.63;;;;;;;;;;5047247;28;20405;-67
2023/05/02 01:07:06;;;;;;;10.32;5.40;;;;;;;;;;5040263;28;20013;-67
2023/05/02 01:09:50;;;;;;;10.15;5.10;;;;;;;;;;5048177;28;20108;-66
2023/05/02 01:12:21;;;;;;;13.35;5.50;;;;;;;;;;5048688;28;20074;-66
2023/05/02 01:14:52;;;;;;;10.07;5.18;;;;;;;;;;5041405;28;20032;-67
2023/05/02 01:17:18;;;;;;;8.30;4.72;;;;;;;;;;5046552;28;20097;-67
2023/05/02 01:19:46;;;;;;;9.65;4.97;;;;;;;;;;5043971;28;20017;-67
2023/05/02 01:22:13;;;;;;;10.15;4.82;;;;;;;;;;5047324;28;20040;-68
2023/05/02 01:25:00;;;;;;;9.82;4.80;;;;;;;;;;5048695;28;20028;-67
2023/05/02 01:27:43;;;;;;;9.30;5.10;;;;;;;;;;5034630;28;20103;-67
2023/05/02 01:30:10;;;;;;;9.88;5.10;;;;;;;;;;5040148;28;20017;-67
2023/05/02 01:32:36;;;;;;;8.35;4.85;;;;;;;;;;5045736;28;20032;-67
2023/05/02 01:35:01;;;;;;;9.25;5.47;;;;;;;;;;5047986;28;20037;-68
2023/05/02 01:37:29;;;;;;;8.93;5.00;;;;;;;;;;5035143;28;20029;-67
2023/05/02 01:39:55;;;;;;;9.77;5.15;;;;;;;;;;5050259;28;20104;-66
2023/05/02 01:42:21;;;;;;;8.20;4.43;;;;;;;;;;5039009;28;20388;-67
2023/05/02 01:44:47;;;;;;;9.13;5.20;;;;;;;;;;5046542;28;20040;-66
2023/05/02 01:47:13;;;;;;;11.00;5.30;;;;;;;;;;5056180;28;20014;-66
2023/05/02 01:49:39;;;;;;;10.57;5.22;;;;;;;;;;5043953;28;20380;-67
2023/05/02 01:52:06;;;;;;;10.88;5.05;;;;;;;;;;5042819;28;20029;-67
2023/05/02 01:54:32;;;;;;;10.00;5.68;;;;;;;;;;5042449;28;20040;-67
2023/05/02 01:56:58;;;;;;;9.55;5.82;;;;;;;;;;5044586;28;20376;-67
2023/05/02 01:59:24;;;;;;;11.35;5.78;;;;;;;;;;5040384;28;20037;-67
2023/05/02 02:01:50;;;;;;;8.80;5.43;;;;;;;;;;5049890;28;20023;-67
2023/05/02 02:04:16;;;;;;;12.30;6.10;;;;;;;;;;5049349;28;20025;-68
2023/05/02 02:06:44;;;;;;;8.80;5.43;;;;;;;;;;5037993;28;20083;-67
2023/05/02 02:09:09;;;;;;;10.55;5.90;;;;;;;;;;5043679;28;20056;-67
2023/05/02 02:11:36;;;;;;;8.90;5.50;;;;;;;;;;5037947;28;20044;-68
2023/05/02 02:14:11;;;;;;;8.60;5.05;;;;;;;;;;5045253;28;20509;-67
2023/05/02 02:16:37;;;;;;;8.88;5.45;;;;;;;;;;5038986;28;20017;-67
2023/05/02 02:19:04;;;;;;;8.98;4.68;;;;;;;;;;5055946;28;20027;-67
2023/05/02 02:21:31;;;;;;;9.73;5.15;;;;;;;;;;5036787;28;20032;-67
2023/05/02 02:23:58;;;;;;;10.80;4.82;;;;;;;;;;5042820;28;20484;-67
2023/05/02 02:26:23;;;;;;;8.18;4.68;;;;;;;;;;5047707;28;20051;-67
2023/05/02 02:28:49;;;;;;;7.97;4.60;;;;;;;;;;5053033;28;20029;-66
2023/05/02 02:31:14;;;;;;;8.23;4.68;;;;;;;;;;5042474;28;20392;-67
2023/05/02 02:33:40;;;;;;;8.52;5.05;;;;;;;;;;5045397;28;20028;-66
2023/05/02 02:36:25;;;;;;;11.90;6.05;;;;;;;;;;5044483;28;20025;-66
2023/05/02 02:38:56;;;;;;;10.38;5.47;;;;;;;;;;5045878;28;20032;-67
2023/05/02 02:41:25;;;;;;;9.73;5.15;;;;;;;;;;5051090;28;20101;-67
2023/05/02 02:44:04;;;;;;;8.65;5.15;;;;;;;;;;5047328;28;20033;-67
2023/05/02 02:46:37;;;;;;;8.35;5.43;;;;;;;;;;5053953;28;20204;-66
2023/05/02 02:49:11;;;;;;;10.13;5.30;;;;;;;;;;5047717;28;20029;-67
2023/05/02 02:51:38;;;;;;;12.35;6.10;;;;;;;;;;5036683;28;20044;-67
2023/05/02 02:54:03;;;;;;;10.00;5.47;;;;;;;;;;5051311;28;20063;-68
2023/05/02 02:56:31;;;;;;;7.57;4.53;;;;;;;;;;5051226;28;20021;-67
2023/05/02 02:59:02;;;;;;;9.82;5.30;;;;;;;;;;5036428;28;20036;-67
2023/05/02 03:01:29;;;;;;;7.95;4.30;;;;;;;;;;5055154;28;20029;-67
2023/05/02 03:03:56;;;;;;;10.10;5.20;;;;;;;;;;5063147;28;20026;-67
2023/05/02 03:06:21;;;;;;;;;;;;;;;;;;5048159;28;20071;-67
2023/05/02 03:08:46;;;;;;;7.78;4.45;;;;;;;;;;5046860;28;19908;-67
2023/05/02 03:11:11;;;;;;;8.10;4.85;;;;;;;;;;5043577;28;20021;-66
2023/05/02 03:13:36;;;;;;;9.17;5.07;;;;;;;;;;5043232;28;20013;-66
2023/05/02 03:16:27;;;;;;;10.23;5.00;;;;;;;;;;5047698;28;20029;-68
2023/05/02 03:18:52;;;;;;;8.93;5.03;;;;;;;;;;5051539;28;20108;-69
2023/05/02 03:21:17;;;;;;;10.95;5.20;;;;;;;;;;5044003;28;20104;-68
2023/05/02 03:23:42;;;;;;;8.00;4.47;;;;;;;;;;5048594;28;20029;-67
2023/05/02 03:26:07;;;;;;;8.93;4.95;;;;;;;;;;5056352;28;20465;-67
2023/05/02 03:28:32;;;;;;;9.77;5.20;;;;;;;;;;5039841;28;20060;-67
2023/05/02 03:30:57;;;;;;;10.30;5.30;;;;;;;;;;5048773;28;20082;-68
2023/05/02 03:33:23;;;;;;;7.77;4.40;;;;;;;;;;5048042;28;21729;-68
2023/05/02 03:35:48;;;;;;;8.07;4.72;;;;;;;;;;5055010;28;20028;-68
2023/05/02 03:38:13;;;;;;;9.00;4.90;;;;;;;;;;5060134;28;20033;-66
2023/05/02 03:40:38;;;;;;;9.40;4.90;;;;;;;;;;5045577;28;20020;-66
2023/05/02 03:43:03;;;;;;;8.67;5.03;;;;;;;;;;5049507;28;20040;-68
2023/05/02 03:45:28;;;;;;;8.37;4.43;;;;;;;;;;5047791;28;20388;-66
2023/05/02 03:47:53;;;;;;;9.50;4.40;;;;;;;;;;5046843;28;20114;-67
2023/05/02 03:50:19;;;;;;;8.75;4.80;;;;;;;;;;5041708;28;20029;-67
2023/05/02 03:52:44;;;;;;;9.93;4.72;;;;;;;;;;5055925;28;20021;-67
2023/05/02 03:55:10;;;;;;;9.27;4.57;;;;;;;;;;5051189;28;20024;-67
2023/05/02 03:57:35;;;;;;;8.73;4.50;;;;;;;;;;5050260;28;20048;-67
2023/05/02 04:00:00;;;;;;;9.07;4.63;;;;;;;;;;5040300;28;20021;-67
2023/05/02 04:02:25;;;;;;;7.93;4.73;;;;;;;;;;5049453;28;20035;-67
2023/05/02 04:04:50;;;;;;;9.67;4.47;;;;;;;;;;5044551;28;20480;-67
2023/05/02 04:07:18;;;;;;;9.73;4.80;;;;;;;;;;5047164;28;20634;-68
2023/05/02 04:09:43;;;;;;;8.13;4.60;;;;;;;;;;5054583;28;21005;-67
2023/05/02 04:12:08;;;;;;;8.18;4.30;;;;;;;;;;5045046;28;20025;-67
2023/05/02 04:14:33;;;;;;;9.88;4.70;;;;;;;;;;5049015;28;20044;-67
2023/05/02 04:16:58;;;;;;;8.60;4.90;;;;;;;;;;5047400;28;20013;-67
2023/05/02 04:19:23;;;;;;;7.88;4.65;;;;;;;;;;5047658;28;20395;-68
2023/05/02 04:21:49;;;;;;;8.90;4.90;;;;;;;;;;5043299;28;20052;-68
2023/05/02 04:24:14;;;;;;;9.27;4.68;;;;;;;;;;5038818;28;20060;-69
2023/05/02 04:26:39;;;;;;;9.50;4.83;;;;;;;;;;5039436;28;20044;-66
2023/05/02 04:29:04;;;;;;;9.47;4.47;;;;;;;;;;5037650;28;20025;-67
2023/05/02 04:31:30;;;;;;;7.90;4.53;;;;;;;;;;5041710;28;20024;-67
2023/05/02 04:33:55;;;;;;;10.18;4.80;;;;;;;;;;5067498;28;20040;-66
2023/05/02 04:36:21;;;;;;;9.43;4.90;;;;;;;;;;5068008;28;20071;-67
2023/05/02 04:38:46;;;;;;;9.02;4.80;;;;;;;;;;5056224;28;20468;-68
2023/05/02 04:41:11;;;;;;;8.52;4.80;;;;;;;;;;5057343;28;20131;-67
2023/05/02 04:43:36;;;;;;;8.10;4.50;;;;;;;;;;5054922;28;20032;-68
2023/05/02 04:46:01;;;;;;;8.27;4.50;;;;;;;;;;5047369;28;20044;-68
2023/05/02 04:48:27;;;;;;;9.70;4.90;;;;;;;;;;5054450;28;20492;-68
2023/05/02 04:50:52;;;;;;;8.80;5.00;;;;;;;;;;5061349;28;20024;-67
2023/05/02 04:53:17;;;;;;;8.75;4.30;;;;;;;;;;5054978;28;20044;-67
2023/05/02 04:55:43;;;;;;;7.37;4.30;;;;;;;;;;5051326;28;20029;-67
2023/05/02 04:58:08;;;;;;;8.33;4.80;;;;;;;;;;5049611;28;20029;-67
2023/05/02 05:00:33;;;;;;;8.03;4.30;;;;;;;;;;5046725;28;20021;-67
2023/05/02 05:02:58;;;;;;;11.27;4.83;;;;;;;;;;5037451;28;20435;-68
2023/05/02 05:05:23;;;;;;;7.90;4.20;;;;;;;;;;5056632;28;20430;-67
2023/05/02 05:07:49;;;;;;;6.78;4.10;;;;;;;;;;5032434;28;20182;-67
2023/05/02 05:10:15;;;;;;;8.98;4.57;;;;;;;;;;5052850;28;20029;-66
2023/05/02 05:12:40;;;;;;;9.32;4.15;;;;;;;;;;5041630;28;20069;-67
2023/05/02 05:15:06;;;;;;;8.73;4.40;;;;;;;;;;5057012;28;20650;-67
2023/05/02 05:17:31;;;;;;;8.88;4.45;;;;;;;;;;5040749;28;20194;-68
2023/05/02 05:19:56;;;;;;;9.43;4.07;;;;;;;;;;5046232;28;20075;-67
2023/05/02 05:22:21;;;;;;;8.07;3.87;;;;;;;;;;5053747;28;20025;-67
2023/05/02 05:24:53;;;;;;;7.40;3.83;;;;;;;;;;5053126;28;20016;-67
2023/05/02 05:27:18;;;;;;;8.40;4.47;;;;;;;;;;5066597;28;20012;-66
2023/05/02 05:29:43;;;;;;;9.33;4.63;;;;;;;;;;5048719;28;20147;-67
2023/05/02 05:32:09;;;;;;;9.18;4.35;;;;;;;;;;5050985;28;20017;-66
2023/05/02 05:34:34;;;;;;;8.30;3.83;;;;;;;;;;5066881;28;20411;-66
2023/05/02 05:36:59;;;;;;;7.78;4.05;;;;;;;;;;5062068;28;20021;-66
2023/05/02 05:39:24;;;;;;;8.87;4.17;;;;;;;;;;5071013;28;20035;-66
2023/05/02 05:41:49;;;;;;;8.60;4.32;;;;;;;;;;5067937;28;20021;-68
2023/05/02 05:44:15;;;;;;;10.35;4.25;;;;;;;;;;5048153;28;20074;-68
2023/05/02 05:46:40;;;;;;;7.23;3.70;;;;;;;;;;5050653;28;20021;-66
2023/05/02 05:49:05;;;;;;;7.57;3.97;;;;;;;;;;5051221;28;20036;-67
2023/05/02 05:51:30;;;;;;;8.10;4.07;;;;;;;;;;5057186;28;20053;-67
2023/05/02 05:53:55;;;;;;;7.50;3.83;;;;;;;;;;5069413;28;20025;-67
2023/05/02 05:56:21;;;;;;;11.10;4.10;;;;;;;;;;5069056;28;20083;-68
2023/05/02 05:58:46;;;;;;;9.55;3.95;;;;;;;;;;5054553;28;20017;-66
2023/05/02 06:01:12;;;;;;;7.63;4.13;;;;;;;;;;5069318;28;20093;-67
2023/05/02 06:03:37;;;;;;;9.13;4.17;;;;;;;;;;5071908;28;20020;-67
2023/05/02 06:06:02;;;;;;;11.97;4.03;;;;;;;;;;5057112;28;20108;-67
2023/05/02 06:08:27;;;;;;;7.33;3.40;;;;;;;;;;5054193;28;20097;-68
2023/05/02 06:10:52;;;;;;;7.60;3.60;;;;;;;;;;5054147;28;20389;-68
2023/05/02 06:13:17;;;;;;;7.35;3.63;;;;;;;;;;5055496;28;20028;-63
2023/05/02 06:15:42;;;;;;;8.07;3.55;;;;;;;;;;5067988;28;20043;-63
2023/05/02 06:18:08;;;;;;;8.57;3.50;;;;;;;;;;5072139;28;20447;-63
2023/05/02 06:20:34;;;;;;;7.28;3.70;;;;;;;;;;5059954;28;20044;-63
2023/05/02 06:22:59;;;;;;;7.28;3.45;;;;;;;;;;5073237;28;20464;-63
2023/05/02 06:25:24;;;;;;;7.88;3.55;;;;;;;;;;5065545;28;20057;-62
2023/05/02 06:27:49;;;;;;;7.23;3.23;;;;;;;;;;5042119;28;20377;-63
2023/05/02 06:30:15;;;;;;;6.93;3.40;;;;;;;;;;5077364;28;20058;-62
2023/05/02 06:32:42;;;;;;;6.87;3.60;;;;;;;;;;5061197;28;20025;-62
2023/05/02 06:35:08;;;;;;;9.90;3.70;;;;;;;;;;5071114;28;20391;-62
2023/05/02 06:37:34;;;;;;;8.57;3.50;;;;;;;;;;5068174;28;20103;-62
2023/05/02 06:39:59;;;;;;;9.85;4.03;;;;;;;;;;5073060;28;20092;-61
2023/05/02 06:42:24;;;;;;;10.27;3.80;;;;;;;;;;5051867;28;20099;-63
2023/05/02 06:44:50;;;;;;;6.30;3.10;;;;;;;;;;5068181;28;20043;-63
2023/05/02 06:47:15;;;;;;;8.27;3.17;;;;;;;;;;5072057;28;20025;-62
2023/05/02 06:49:40;;;;;;;8.03;3.60;;;;;;;;;;5073081;28;20039;-62
2023/05/02 06:52:05;;;;;;;7.95;3.10;;;;;;;;;;5066150;28;20020;-62
2023/05/02 06:54:30;;;;;;;6.93;2.97;;;;;;;;;;5067457;28;20033;-63
2023/05/02 06:56:55;;;;;;;5.78;2.92;;;;;;;;;;5055537;28;20080;-63
2023/05/02 06:59:21;;;;;;;6.30;3.27;;;;;;;;;;5067098;28;20016;-63
2023/05/02 07:01:46;;;;;;;6.27;2.90;;;;;;;;;;5050142;28;20108;-62
2023/05/02 07:04:11;;;;;;;7.32;3.20;;;;;;;;;;5040950;28;20021;-66
2023/05/02 07:06:36;;;;;;;6.23;2.90;;;;;;;;;;5048311;28;20031;-67
2023/05/02 07:09:01;;;;;;;6.05;2.85;;;;;;;;;;5060339;28;20435;-66
2023/05/02 07:11:26;;;;;;;7.38;3.00;;;;;;;;;;5047239;28;20084;-68
2023/05/02 07:13:52;;;;;;;5.50;2.70;;;;;;;;;;5059552;28;20471;-68
2023/05/02 07:16:17;;;;;;;6.07;2.83;;;;;;;;;;5064340;28;20116;-68
2023/05/02 07:18:44;;;;;;;6.13;2.47;;;;;;;;;;5049570;28;20067;-68
2023/05/02 07:21:09;;;;;;;8.40;2.85;;;;;;;;;;5052830;28;20013;-68
2023/05/02 07:23:35;;;;;;;6.55;2.88;;;;;;;;;;5060392;28;20024;-67
2023/05/02 07:26:00;;;;;;;5.33;2.60;;;;;;;;;;5064739;28;20051;-66
2023/05/02 07:28:25;;;;;;;7.90;3.10;;;;;;;;;;5051680;28;20023;-68
2023/05/02 07:30:51;;;;;;;5.70;2.80;;;;;;;;;;5053003;28;20396;-66
2023/05/02 07:33:16;;;;;;;7.53;3.00;;;;;;;;;;5052597;28;20599;-67
2023/05/02 07:35:41;;;;;;;5.93;2.93;;;;;;;;;;5070007;28;20033;-66
2023/05/02 07:38:06;;;;;;;6.65;3.10;;;;;;;;;;5072758;28;20020;-67
2023/05/02 07:40:31;;;;;;;5.68;2.88;;;;;;;;;;5085271;28;20103;-65
2023/05/02 07:42:57;;;;;;;6.18;2.42;;;;;;;;;;5073594;28;20013;-66
2023/05/02 07:45:22;;;;;;;7.33;2.77;;;;;;;;;;5070904;28;20075;-68
2023/05/02 07:47:47;;;;;;;6.30;2.90;;;;;;;;;;5069391;28;20043;-67
2023/05/02 07:50:12;;;;;;;8.80;3.35;;;;;;;;;;5068040;28;20084;-67
2023/05/02 07:52:37;;;;;;;6.17;3.20;;;;;;;;;;5051318;28;20036;-67
2023/05/02 07:55:03;;;;;;;6.65;2.97;;;;;;;;;;5051976;28;20111;-67
2023/05/02 07:57:28;;;;;;;6.83;3.27;;;;;;;;;;5057418;28;20051;-69
2023/05/02 07:59:55;;;;;;;6.97;3.53;;;;;;;;;;5044097;28;20096;-68
2023/05/02 08:02:22;;;;;;;6.65;3.10;;;;;;;;;;5052048;28;20018;-67
2023/05/02 08:04:47;;;;;;;6.72;3.35;;;;;;;;;;5052271;28;20078;-68
2023/05/02 08:07:13;;;;;;;6.67;3.40;;;;;;;;;;5052038;28;20029;-67
2023/05/02 08:09:38;;;;;;;9.05;3.50;;;;;;;;;;5048424;28;20455;-66
2023/05/02 08:12:03;;;;;;;6.45;3.15;;;;;;;;;;5060275;28;20487;-68
2023/05/02 08:14:28;;;;;;;8.93;3.30;;;;;;;;;;5049778;28;20021;-68
2023/05/02 08:16:53;;;;;;;8.10;3.60;;;;;;;;;;5050925;28;20017;-66
2023/05/02 08:19:18;;;;;;;7.65;4.00;;;;;;;;;;5052029;28;20094;-67
2023/05/02 08:21:43;;;;;;;7.13;3.50;;;;;;;;;;5051541;28;20013;-68
2023/05/02 08:24:09;;;;;;;7.30;3.60;;;;;;;;;;5065584;28;20120;-67
2023/05/02 08:26:34;;;;;;;6.43;3.70;;;;;;;;;;5064610;28;20020;-68
2023/05/02 08:28:59;;;;;;;7.33;3.47;;;;;;;;;;5049760;28;20013;-69
2023/05/02 08:31:25;;;;;;;5.80;3.47;;;;;;;;;;5051246;28;20013;-68
2023/05/02 08:33:50;;;;;;;7.00;3.90;;;;;;;;;;5050456;28;20016;-67
2023/05/02 08:36:16;;;;;;;6.97;3.67;;;;;;;;;;5051119;28;20041;-67
2023/05/02 08:38:42;;;;;;;7.18;3.50;;;;;;;;;;5051329;28;20102;-67
2023/05/02 08:41:10;;;;;;;7.05;3.40;;;;;;;;;;5063027;28;20539;-67
2023/05/02 08:43:37;;;;;;;8.07;3.65;;;;;;;;;;5049695;28;20056;-67
2023/05/02 08:46:03;;;;;;;6.53;3.53;;;;;;;;;;5051275;28;20070;-67
2023/05/02 08:48:29;;;;;;;;;;;;;;;;;;5051820;28;20032;-69
2023/05/02 08:50:54;;;;;;;7.75;3.60;;;;;;;;;;5051529;28;19905;-67
2023/05/02 08:53:20;;;;;;;7.70;3.75;;;;;;;;;;5059534;28;20036;-66
2023/05/02 08:55:45;;;;;;;8.20;3.72;;;;;;;;;;5056262;28;20144;-67
2023/05/02 08:58:11;;;;;;;7.35;3.58;;;;;;;;;;5040674;28;20025;-67
2023/05/02 09:00:40;;;;;;;7.37;3.43;;;;;;;;;;5051068;28;20099;-67
2023/05/02 09:03:14;;;;;;;8.70;3.85;;;;;;;;;;5050497;28;20455;-67
2023/05/02 09:05:40;;;;;;;8.02;3.55;;;;;;;;;;5051406;28;20415;-67
2023/05/02 09:08:05;;;;;;;6.93;3.30;;;;;;;;;;5050097;28;20040;-67
2023/05/02 09:10:32;;;;;;;5.90;3.00;;;;;;;;;;5062384;28;20019;-66
2023/05/02 09:13:17;;;;;;;6.82;3.00;;;;;;;;;;5049652;28;20028;-66
2023/05/02 09:15:55;;;;;;;7.60;3.00;;;;;;;;;;5030512;28;20109;-68
2023/05/02 09:18:22;;;;;;;7.22;3.13;;;;;;;;;;5040034;28;20025;-67
2023/05/02 09:20:47;;;;;;;6.90;3.05;;;;;;;;;;5050720;28;20472;-67
2023/05/02 09:23:12;;;;;;;6.65;2.85;;;;;;;;;;5053820;28;20070;-67
2023/05/02 09:25:38;;;;;;;8.13;3.03;;;;;;;;;;5060801;28;20017;-66
2023/05/02 09:28:03;;;;;;;7.82;3.00;;;;;;;;;;5052309;28;20531;-67
2023/05/02 09:30:28;;;;;;;7.60;2.90;;;;;;;;;;5050563;28;20436;-66
2023/05/02 09:32:56;;;;;;;8.77;3.90;;;;;;;;;;5050077;28;20523;-66
2023/05/02 09:35:24;;;;;;;10.73;3.40;;;;;;;;;;5053066;28;20052;-67
2023/05/02 09:37:51;;;;;;;8.55;3.70;;;;;;;;;;5054002;28;20075;-66
2023/05/02 09:40:16;;;;;;;;;;;;;;;;;;5062652;28;20031;-66
2023/05/02 09:42:41;;;;;;;6.83;3.60;;;;;;;;;;5054007;28;19909;-68
2023/05/02 09:45:06;;;;;;;7.85;3.65;;;;;;;;;;5054693;28;20024;-68
2023/05/02 09:47:32;;;;;;;7.95;4.32;;;;;;;;;;5054977;28;20032;-69
2023/05/02 09:49:57;;;;;;;7.43;4.40;;;;;;;;;;5054940;28;20021;-67
2023/05/02 09:52:22;;;;;;;10.25;4.43;;;;;;;;;;5055126;28;20033;-65
2023/05/02 09:54:49;;;;;;;8.53;4.17;;;;;;;;;;5056800;28;20074;-66
2023/05/02 09:57:15;;;;;;;8.70;4.38;;;;;;;;;;5057346;28;20036;-66
2023/05/02 09:59:40;;;;;;;9.82;5.25;;;;;;;;;;5038075;28;20025;-67
2023/05/02 10:02:06;;;;;;;10.75;5.30;;;;;;;;;;5034641;28;20029;-66
2023/05/02 10:04:32;;;;;;;13.00;5.55;;;;;;;;;;5053366;28;20043;-68
2023/05/02 10:06:57;;;;;;;8.88;4.80;;;;;;;;;;5055620;28;20055;-67
2023/05/02 10:09:24;;;;;;;8.18;4.82;;;;;;;;;;5058930;28;20021;-68
2023/05/02 10:11:53;;;;;;;10.27;4.90;;;;;;;;;;5054883;28;20473;-66
2023/05/02 10:14:22;;;;;;;8.90;4.93;;;;;;;;;;5053386;28;20032;-67
2023/05/02 10:17:06;;;;;;;12.55;5.68;;;;;;;;;;5051056;28;20056;-66
2023/05/02 10:19:39;;;;;;;10.50;5.07;;;;;;;;;;5046315;28;20388;-67
2023/05/02 10:22:05;;;;;;;9.02;5.63;;;;;;;;;;5051992;28;20066;-67
2023/05/02 10:24:31;;;;;;;9.27;5.03;;;;;;;;;;5058505;28;20025;-67
2023/05/02 10:26:56;;;;;;;11.63;5.60;;;;;;;;;;5050557;28;20021;-66
2023/05/02 10:29:22;;;;;;;11.23;5.10;;;;;;;;;;5053858;28;20077;-66
2023/05/02 10:31:48;;;;;;;11.13;5.75;;;;;;;;;;5052016;28;20467;-68
2023/05/02 10:34:13;;;;;;;11.15;5.15;;;;;;;;;;5052762;28;20024;-67
2023/05/02 10:36:38;;;;;;;9.47;5.37;;;;;;;;;;5053460;28;20036;-67
2023/05/02 10:39:04;;;;;;;10.17;5.63;;;;;;;;;;5059942;28;20028;-67
2023/05/02 10:41:30;;;;;;;9.80;5.70;;;;;;;;;;5065353;28;20083;-67
2023/05/02 10:43:55;;;;;;;10.70;5.75;;;;;;;;;;5065242;28;20033;-68
2023/05/02 10:46:40;;;;;;;11.63;5.70;;;;;;;;;;5057468;28;20029;-67
2023/05/02 10:49:09;;;;;;;8.00;5.00;;;;;;;;;;5053429;28;20017;-67
2023/05/02 10:51:35;;;;;;;10.35;5.97;;;;;;;;;;5052480;28;20036;-68
2023/05/02 10:54:15;;;;;;;9.13;5.85;;;;;;;;;;5052117;28;20021;-67
2023/05/02 10:57:02;;;;;;;8.60;5.57;;;;;;;;;;5036535;28;20069;-67
2023/05/02 10:59:32;;;;;;;10.57;6.88;;;;;;;;;;5052166;28;20534;-67
2023/05/02 11:01:57;;;;;;;11.02;6.47;;;;;;;;;;5047295;28;20060;-67
2023/05/02 11:04:23;;;;;;;11.32;6.05;;;;;;;;;;5056294;28;20046;-67
2023/05/02 11:07:00;;;;;;;9.15;5.72;;;;;;;;;;5061673;28;20028;-68
2023/05/02 11:09:28;;;;;;;10.98;6.30;;;;;;;;;;5053256;28;20112;-69
2023/05/02 11:11:53;;;;;;;11.38;6.88;;;;;;;;;;5053440;28;20013;-67
2023/05/02 11:14:25;;;;;;;11.00;6.00;;;;;;;;;;5052225;28;20066;-68
2023/05/02 11:17:05;;;;;;;10.95;6.90;;;;;;;;;;5051702;28;20021;-68
2023/05/02 11:19:36;;;;;;;11.27;6.97;;;;;;;;;;5056677;28;20051;-67
2023/05/02 11:22:26;;;;;;;12.15;6.22;;;;;;;;;;5072799;28;20016;-68
2023/05/02 11:24:51;;;;;;;11.00;6.60;;;;;;;;;;5067240;28;20059;-68
2023/05/02 11:27:28;;;;;;;15.23;7.20;;;;;;;;;;5072837;28;20429;-67
2023/05/02 11:29:57;;;;;;;11.05;7.07;;;;;;;;;;5068002;28;20021;-68
2023/05/02 11:32:24;;;;;;;11.23;6.47;;;;;;;;;;5054508;28;20021;-68
2023/05/02 11:34:51;;;;;;;11.93;6.47;;;;;;;;;;5049366;28;20033;-68
2023/05/02 11:37:17;;;;;;;10.65;6.68;;;;;;;;;;5053307;28;20055;-68
2023/05/02 11:39:42;;;;;;;12.07;6.85;;;;;;;;;;5052764;28;20425;-67
2023/05/02 11:42:07;;;;;;;11.97;6.47;;;;;;;;;;5052385;28;20049;-67
2023/05/02 11:44:32;;;;;;;9.85;6.28;;;;;;;;;;5051470;28;20037;-68
2023/05/02 11:46:57;;;;;;;9.90;5.20;;;;;;;;;;5060328;28;20067;-67
2023/05/02 11:49:23;;;;;;;10.25;5.60;;;;;;;;;;5052330;28;20051;-67
2023/05/02 11:51:48;;;;;;;10.10;6.10;;;;;;;;;;5051958;28;20155;-66
2023/05/02 11:54:20;;;;;;;12.33;6.40;;;;;;;;;;5055395;28;20478;-67
2023/05/02 11:56:46;;;;;;;10.07;6.15;;;;;;;;;;5063268;28;20036;-67
2023/05/02 11:59:11;;;;;;;10.40;6.03;;;;;;;;;;5062545;28;20029;-68
2023/05/02 12:01:45;;;;;;;11.17;6.50;;;;;;;;;;5044854;28;20023;-68
2023/05/02 12:04:11;;;;;;;11.52;5.88;;;;;;;;;;5051114;28;20036;-68
2023/05/02 12:06:36;;;;;;;10.57;5.60;;;;;;;;;;5051513;28;20472;-67
2023/05/02 12:09:16;;;;;;;13.57;6.65;;;;;;;;;;5063255;28;20020;-67
2023/05/02 12:11:42;;;;;;;10.98;6.07;;;;;;;;;;5065762;28;20104;-67
2023/05/02 12:14:08;;;;;;;9.60;6.03;;;;;;;;;;5057630;28;20104;-67
2023/05/02 12:16:33;;;;;;;11.27;5.90;;;;;;;;;;5054561;28;20032;-67
2023/05/02 12:18:59;;;;;;;12.13;6.35;;;;;;;;;;5053364;28;20116;-67
2023/05/02 12:21:27;;;;;;;9.75;5.70;;;;;;;;;;5072091;28;20025;-66
2023/05/02 12:23:52;;;;;;;11.45;6.22;;;;;;;;;;5057124;28;20111;-67
2023/05/02 12:26:18;;;;;;;9.30;5.90;;;;;;;;;;5052468;28;20441;-66
2023/05/02 12:28:48;;;;;;;8.98;5.93;;;;;;;;;;5048198;28;20013;-67
2023/05/02 12:31:14;;;;;;;10.77;5.85;;;;;;;;;;5052175;28;20092;-66
2023/05/02 12:33:42;;;;;;;9.45;5.75;;;;;;;;;;5064809;28;20088;-68
2023/05/02 12:36:08;;;;;;;10.43;5.80;;;;;;;;;;5053713;28;20555;-66
2023/05/02 12:38:33;;;;;;;10.07;5.90;;;;;;;;;;5049905;28;20036;-66
2023/05/02 12:40:59;;;;;;;10.17;5.67;;;;;;;;;;5051175;28;20032;-68
2023/05/02 12:43:24;;;;;;;9.37;5.77;;;;;;;;;;5047069;28;20056;-67
2023/05/02 12:45:50;;;;;;;8.93;5.30;;;;;;;;;;5051032;28;20028;-66
2023/05/02 12:48:15;;;;;;;;;;;;;;;;;;5050661;28;20123;-68
2023/05/02 12:50:41;;;;;;;9.70;5.75;;;;;;;;;;5065570;28;19931;-67
2023/05/02 12:53:06;;;;;;;11.65;6.22;;;;;;;;;;5062029;28;20069;-68
2023/05/02 12:55:31;;;;;;;12.50;6.13;;;;;;;;;;5065086;28;20129;-66
2023/05/02 12:58:00;;;;;;;13.90;6.53;;;;;;;;;;5047029;28;20039;-67
2023/05/02 13:00:25;;;;;;;9.80;5.65;;;;;;;;;;5050962;28;20009;-67
2023/05/02 13:02:51;;;;;;;10.48;6.13;;;;;;;;;;5050553;28;20290;-67
2023/05/02 13:05:17;;;;;;;11.32;6.30;;;;;;;;;;5052644;28;20028;-67
2023/05/02 13:07:42;;;;;;;9.93;5.72;;;;;;;;;;5062999;28;20027;-67
2023/05/02 13:10:08;;;;;;;9.32;6.22;;;;;;;;;;5070274;28;20013;-68
2023/05/02 13:12:36;;;;;;;9.43;5.93;;;;;;;;;;5044325;28;20057;-67
2023/05/02 13:15:01;;;;;;;8.55;5.53;;;;;;;;;;5049469;28;20043;-67
2023/05/02 13:17:26;;;;;;;9.48;6.00;;;;;;;;;;5038468;28;20489;-67
2023/05/02 13:19:51;;;;;;;8.53;6.17;;;;;;;;;;5046586;28;20087;-66
2023/05/02 13:22:17;;;;;;;8.67;5.67;;;;;;;;;;5051288;28;20024;-67
2023/05/02 13:24:42;;;;;;;7.87;5.10;;;;;;;;;;5048816;28;20499;-67
2023/05/02 13:27:07;;;;;;;8.85;5.10;;;;;;;;;;5051037;28;20485;-66
2023/05/02 13:29:32;;;;;;;10.65;6.18;;;;;;;;;;5047399;28;20018;-67
2023/05/02 13:31:57;;;;;;;10.63;6.50;;;;;;;;;;5045728;28;20114;-67
2023/05/02 13:34:22;;;;;;;8.85;5.65;;;;;;;;;;5056080;28;20036;-67
2023/05/02 13:36:47;;;;;;;10.23;6.20;;;;;;;;;;5044206;28;20026;-67
2023/05/02 13:39:12;;;;;;;9.90;5.95;;;;;;;;;;5050467;28;20063;-68
2023/05/02 13:41:38;;;;;;;9.50;5.50;;;;;;;;;;5050100;28;20033;-67
2023/05/02 13:44:03;;;;;;;9.60;5.67;;;;;;;;;;5049377;28;20017;-66
2023/05/02 13:46:28;;;;;;;8.32;5.20;;;;;;;;;;5048874;28;20025;-67
2023/05/02 13:48:54;;;;;;;10.30;5.70;;;;;;;;;;5052047;28;20019;-66
2023/05/02 13:51:19;;;;;;;11.00;5.43;;;;;;;;;;5049574;28;20043;-67
2023/05/02 13:53:44;;;;;;;10.90;6.10;;;;;;;;;;5046584;28;20083;-66
2023/05/02 13:56:09;;;;;;;11.13;5.75;;;;;;;;;;5056808;28;20550;-66
2023/05/02 13:58:34;;;;;;;9.57;5.70;;;;;;;;;;5048356;28;20032;-66
2023/05/02 14:01:00;;;;;;;8.70;5.20;;;;;;;;;;5051895;28;20025;-66
2023/05/02 14:03:25;;;;;;;10.52;5.85;;;;;;;;;;5056672;28;20043;-67
2023/05/02 14:05:50;;;;;;;11.80;6.97;;;;;;;;;;5051442;28;20049;-67
2023/05/02 14:08:18;;;;;;;11.30;6.70;;;;;;;;;;5045909;28;20029;-66
2023/05/02 14:10:43;;;;;;;10.00;6.90;;;;;;;;;;5054906;28;20016;-67
2023/05/02 14:13:08;;;;;;;9.60;6.57;;;;;;;;;;5051933;28;20017;-66
2023/05/02 14:15:33;;;;;;;12.33;7.57;;;;;;;;;;5047423;28;20475;-66
2023/05/02 14:17:58;;;;;;;13.10;7.45;;;;;;;;;;5051916;28;20075;-66
2023/05/02 14:20:23;;;;;;;13.25;6.78;;;;;;;;;;5045527;28;20071;-66
2023/05/02 14:22:49;;;;;;;13.50;7.70;;;;;;;;;;5062404;28;20052;-66
2023/05/02 14:25:14;;;;;;;11.60;6.93;;;;;;;;;;5047435;28;20030;-66
2023/05/02 14:27:40;;;;;;;11.88;7.22;;;;;;;;;;5053911;28;20443;-66
2023/05/02 14:30:06;;;;;;;13.43;7.50;;;;;;;;;;5059805;28;20024;-67
2023/05/02 14:32:31;;;;;;;13.30;7.15;;;;;;;;;;5053093;28;20016;-67
2023/05/02 14:34:56;;;;;;;11.27;6.70;;;;;;;;;;5051955;28;20397;-66
2023/05/02 14:37:21;;;;;;;12.15;7.40;;;;;;;;;;5047458;28;20037;-66